createdAt,value
2022-08-21T00:00:20.313Z,1.80
2022-08-21T00:02:49.016Z,1.93
2022-08-21T00:05:16.725Z,1.90
2022-08-21T00:07:43.640Z,2.20
2022-08-21T00:10:11.505Z,1.80
2022-08-21T00:13:35.328Z,1.97
2022-08-21T00:16:04.808Z,1.80
2022-08-21T00:18:32.227Z,2.07
2022-08-21T00:20:59.372Z,1.90
2022-08-21T00:23:26.404Z,1.70
2022-08-21T00:29:39.895Z,1.90
2022-08-21T00:32:08.162Z,1.70
2022-08-21T00:34:35.055Z,2.03
2022-08-21T00:37:28.100Z,1.90
2022-08-21T00:39:57.584Z,1.67
2022-08-21T00:42:25.004Z,2.10
2022-08-21T00:44:52.241Z,1.83
2022-08-21T00:47:20.867Z,1.90
2022-08-21T00:49:47.851Z,1.87
2022-08-21T00:52:20.090Z,2.00
2022-08-21T00:54:48.489Z,1.80
2022-08-21T00:57:20.193Z,1.90
2022-08-21T00:59:51.955Z,2.00
2022-08-21T01:02:22.172Z,1.83
2022-08-21T01:04:50.021Z,1.83
2022-08-21T01:07:18.021Z,1.63
2022-08-21T01:09:48.361Z,2.17
2022-08-21T01:12:16.087Z,1.90
2022-08-21T01:14:46.251Z,1.67
2022-08-21T01:17:14.509Z,1.90
2022-08-21T01:19:43.376Z,1.70
2022-08-21T01:22:11.658Z,2.10
2022-08-21T01:24:38.657Z,1.80
2022-08-21T01:27:06.331Z,2.20
2022-08-21T01:29:38.707Z,2.00
2022-08-21T01:32:08.315Z,2.07
2022-08-21T01:34:37.162Z,1.97
2022-08-21T01:37:04.560Z,1.67
2022-08-21T01:39:33.106Z,1.97
2022-08-21T01:42:00.053Z,2.00
2022-08-21T01:44:27.635Z,2.13
2022-08-21T01:46:55.564Z,2.00
2022-08-21T01:49:22.676Z,2.20
2022-08-21T01:51:49.692Z,1.97
2022-08-21T01:54:16.675Z,2.20
2022-08-21T01:56:48.021Z,2.00
2022-08-21T01:59:15.360Z,1.90
2022-08-21T02:01:42.617Z,2.10
2022-08-21T02:04:11.450Z,2.00
2022-08-21T02:06:39.241Z,1.90
2022-08-21T02:09:07.673Z,1.73
2022-08-21T02:11:35.550Z,2.20
2022-08-21T02:14:04.052Z,1.90
2022-08-21T02:16:31.330Z,2.00
2022-08-21T02:19:00.239Z,1.97
2022-08-21T02:21:27.261Z,1.80
2022-08-21T02:23:54.194Z,2.10
2022-08-21T02:26:21.205Z,2.00
2022-08-21T02:28:54.254Z,2.10
2022-08-21T02:31:22.902Z,2.33
2022-08-21T02:33:49.872Z,2.17
2022-08-21T02:36:16.798Z,1.93
2022-08-21T02:38:44.864Z,2.00
2022-08-21T02:41:14.398Z,2.10
2022-08-21T02:47:54.679Z,2.20
2022-08-21T02:50:26.664Z,2.10
2022-08-21T02:52:55.058Z,1.93
2022-08-21T02:55:24.336Z,2.23
2022-08-21T02:57:51.258Z,2.13
2022-08-21T03:00:19.051Z,2.00
2022-08-21T03:02:47.526Z,2.30
2022-08-21T03:05:16.652Z,2.10
2022-08-21T03:07:44.073Z,2.20
2022-08-21T03:10:11.320Z,2.37
2022-08-21T03:12:38.360Z,2.23
2022-08-21T03:15:07.585Z,2.20
2022-08-21T03:17:34.784Z,2.10
2022-08-21T03:20:02.810Z,2.10
2022-08-21T03:22:31.106Z,2.30
2022-08-21T03:24:58.350Z,2.20
2022-08-21T03:27:25.936Z,2.20
2022-08-21T03:29:53.215Z,2.20
2022-08-21T03:32:20.528Z,2.57
2022-08-21T03:34:47.773Z,2.50
2022-08-21T03:37:15.899Z,2.30
2022-08-21T03:39:44.172Z,2.27
2022-08-21T03:42:11.362Z,2.27
2022-08-21T03:44:40.464Z,2.47
2022-08-21T03:47:07.740Z,2.40
2022-08-21T03:49:34.730Z,2.43
2022-08-21T03:52:02.072Z,2.67
2022-08-21T03:54:29.057Z,2.73
2022-08-21T03:56:57.533Z,2.47
2022-08-21T03:59:25.168Z,2.20
2022-08-21T04:01:53.984Z,2.03
2022-08-21T04:04:21.201Z,2.40
2022-08-21T04:06:48.315Z,2.30
2022-08-21T04:09:15.243Z,2.30
2022-08-21T04:11:42.140Z,2.50
2022-08-21T04:14:10.786Z,2.50
2022-08-21T04:16:37.706Z,2.70
2022-08-21T04:19:04.683Z,2.73
2022-08-21T04:21:32.265Z,2.40
2022-08-21T04:24:00.191Z,2.43
2022-08-21T04:26:27.364Z,2.73
2022-08-21T04:28:54.361Z,2.40
2022-08-21T04:31:22.692Z,2.57
2022-08-21T04:33:49.621Z,2.70
2022-08-21T04:36:16.645Z,2.90
2022-08-21T04:38:47.836Z,2.50
2022-08-21T04:41:14.789Z,2.70
2022-08-21T04:43:41.976Z,2.10
2022-08-21T04:46:08.892Z,2.40
2022-08-21T04:48:42.258Z,2.40
2022-08-21T04:51:12.814Z,2.63
2022-08-21T04:53:44.699Z,2.70
2022-08-21T04:56:16.259Z,2.70
2022-08-21T04:58:43.668Z,2.40
2022-08-21T05:01:18.442Z,2.80
2022-08-21T05:03:48.819Z,3.00
2022-08-21T05:06:17.912Z,2.50
2022-08-21T05:08:47.760Z,3.00
2022-08-21T05:11:14.851Z,2.70
2022-08-21T05:13:42.312Z,2.70
2022-08-21T05:16:09.207Z,2.70
2022-08-21T05:18:36.160Z,2.60
2022-08-21T05:21:05.717Z,2.70
2022-08-21T05:23:32.675Z,2.87
2022-08-21T05:25:59.645Z,3.00
2022-08-21T05:28:27.164Z,3.10
2022-08-21T05:30:54.680Z,3.10
2022-08-21T05:33:21.680Z,3.10
2022-08-21T05:35:51.721Z,2.83
2022-08-21T05:38:20.277Z,2.77
2022-08-21T05:40:47.676Z,2.87
2022-08-21T05:43:14.725Z,3.00
2022-08-21T05:45:44.223Z,3.07
2022-08-21T05:48:14.312Z,3.10
2022-08-21T05:50:41.987Z,3.40
2022-08-21T05:53:10.741Z,2.87
2022-08-21T05:55:44.911Z,2.30
2022-08-21T05:58:46.952Z,2.70
2022-08-21T06:01:35.605Z,2.60
2022-08-21T06:04:02.824Z,2.80
2022-08-21T06:06:29.673Z,3.00
2022-08-21T06:08:56.577Z,2.47
2022-08-21T06:11:28.829Z,2.53
2022-08-21T06:13:55.975Z,2.60
2022-08-21T06:16:23.673Z,2.67
2022-08-21T06:18:50.835Z,2.60
2022-08-21T06:21:18.423Z,2.40
2022-08-21T06:23:45.458Z,2.67
2022-08-21T06:26:14.223Z,2.70
2022-08-21T06:28:43.796Z,2.80
2022-08-21T06:31:16.649Z,2.43
2022-08-21T06:33:43.689Z,2.90
2022-08-21T06:36:10.757Z,2.43
2022-08-21T06:38:37.967Z,2.73
2022-08-21T06:41:07.403Z,2.50
2022-08-21T06:43:39.593Z,2.47
2022-08-21T06:46:08.875Z,2.37
2022-08-21T06:48:35.966Z,2.67
2022-08-21T06:51:03.544Z,2.70
2022-08-21T06:53:30.445Z,2.67
2022-08-21T06:55:57.323Z,3.07
2022-08-21T06:58:24.458Z,2.70
2022-08-21T07:00:58.777Z,2.80
2022-08-21T07:03:30.831Z,2.80
2022-08-21T07:05:59.279Z,3.03
2022-08-21T07:08:27.566Z,3.07
2022-08-21T07:10:55.904Z,3.00
2022-08-21T07:13:22.917Z,3.07
2022-08-21T07:15:49.951Z,2.80
2022-08-21T07:18:17.370Z,2.90
2022-08-21T07:20:46.405Z,2.80
2022-08-21T07:23:23.019Z,3.00
2022-08-21T07:25:49.950Z,3.00
2022-08-21T07:28:16.842Z,2.70
2022-08-21T07:30:43.704Z,3.20
2022-08-21T07:33:10.641Z,3.33
2022-08-21T07:35:37.518Z,3.27
2022-08-21T07:38:05.846Z,3.00
2022-08-21T07:40:32.806Z,3.17
2022-08-21T07:42:59.859Z,3.50
2022-08-21T07:45:27.508Z,3.60
2022-08-21T07:47:57.525Z,3.80
2022-08-21T07:50:25.618Z,3.07
2022-08-21T07:52:52.866Z,3.30
2022-08-21T07:55:22.603Z,3.30
2022-08-21T07:57:50.089Z,3.50
2022-08-21T08:00:20.470Z,3.30
2022-08-21T08:02:50.935Z,3.20
2022-08-21T08:05:20.120Z,3.30
2022-08-21T08:07:48.540Z,3.03
2022-08-21T08:10:16.782Z,3.30
2022-08-21T08:12:45.846Z,3.30
2022-08-21T08:15:16.209Z,3.13
2022-08-21T08:17:43.255Z,3.20
2022-08-21T08:20:12.043Z,2.80
2022-08-21T08:22:39.964Z,2.83
2022-08-21T08:25:09.769Z,3.10
2022-08-21T08:27:37.232Z,3.17
2022-08-21T08:30:07.614Z,3.30
2022-08-21T08:32:34.773Z,2.70
2022-08-21T08:35:01.709Z,3.30
2022-08-21T08:37:30.470Z,3.40
2022-08-21T08:40:04.618Z,2.90
2022-08-21T08:42:34.766Z,3.10
2022-08-21T08:45:07.840Z,3.30
2022-08-21T08:47:39.097Z,3.13
2022-08-21T08:50:09.648Z,2.80
2022-08-21T08:52:41.356Z,2.90
2022-08-21T08:55:12.368Z,3.10
2022-08-21T08:57:43.117Z,3.33
2022-08-21T09:00:14.726Z,2.90
2022-08-21T09:02:46.613Z,3.00
2022-08-21T09:05:23.239Z,2.70
2022-08-21T09:08:08.677Z,2.90
2022-08-21T09:10:48.298Z,3.10
2022-08-21T09:13:28.074Z,2.80
2022-08-21T09:16:06.159Z,3.10
2022-08-21T09:18:45.253Z,2.70
2022-08-21T09:21:19.024Z,3.03
2022-08-21T09:23:55.785Z,2.70
2022-08-21T09:26:26.130Z,2.70
2022-08-21T09:28:54.681Z,2.90
2022-08-21T09:31:27.043Z,3.47
2022-08-21T09:33:59.354Z,3.20
2022-08-21T09:36:34.143Z,2.90
2022-08-21T09:39:01.022Z,3.20
2022-08-21T09:41:29.750Z,2.60
2022-08-21T09:43:56.703Z,3.08
2022-08-21T09:46:26.906Z,2.80
2022-08-21T09:48:56.185Z,2.72
2022-08-21T09:51:26.749Z,2.75
2022-08-21T09:53:58.063Z,2.60
2022-08-21T09:56:48.495Z,2.85
2022-08-21T09:59:25.521Z,2.50
2022-08-21T10:01:54.919Z,3.10
2022-08-21T10:04:25.085Z,2.70
2022-08-21T10:06:52.095Z,3.20
2022-08-21T10:09:23.494Z,2.50
2022-08-21T10:12:11.193Z,2.80
2022-08-21T10:14:50.065Z,2.50
2022-08-21T10:17:26.374Z,2.97
2022-08-21T10:20:01.565Z,2.70
2022-08-21T10:22:39.076Z,2.60
2022-08-21T10:25:14.396Z,2.90
2022-08-21T10:27:50.199Z,2.90
2022-08-21T10:30:23.400Z,2.60
2022-08-21T10:33:28.604Z,2.88
2022-08-21T10:36:03.104Z,2.60
2022-08-21T10:39:23.324Z,2.88
2022-08-21T10:42:13.412Z,2.50
2022-08-21T10:44:48.516Z,3.08
2022-08-21T10:47:20.394Z,2.65
2022-08-21T10:49:59.712Z,2.80
2022-08-21T10:52:44.257Z,2.70
2022-08-21T10:55:15.938Z,2.85
2022-08-21T10:57:48.531Z,3.05
2022-08-21T11:00:18.329Z,2.70
2022-08-21T11:02:51.526Z,2.78
2022-08-21T11:05:25.053Z,3.08
2022-08-21T11:07:56.080Z,2.88
2022-08-21T11:10:30.473Z,3.03
2022-08-21T11:13:01.905Z,2.95
2022-08-21T11:15:37.745Z,2.90
2022-08-21T11:18:16.196Z,3.05
2022-08-21T11:20:51.421Z,2.92
2022-08-21T11:23:23.635Z,2.95
2022-08-21T11:25:54.813Z,3.03
2022-08-21T11:28:26.173Z,2.70
2022-08-21T11:31:00.057Z,2.85
2022-08-21T11:33:37.296Z,2.75
2022-08-21T11:36:13.987Z,2.70
2022-08-21T11:38:43.493Z,2.58
2022-08-21T11:41:23.143Z,2.65
2022-08-21T11:43:55.859Z,2.80
2022-08-21T11:46:32.072Z,2.83
2022-08-21T11:49:09.945Z,2.80
2022-08-21T11:51:43.241Z,2.95
2022-08-21T11:54:22.385Z,2.60
2022-08-21T11:56:54.429Z,2.60
2022-08-21T11:59:26.518Z,2.90
2022-08-21T12:01:54.557Z,2.70
2022-08-21T12:04:28.691Z,2.90
2022-08-21T12:06:57.965Z,2.53
2022-08-21T12:09:35.333Z,2.90
2022-08-21T12:12:06.264Z,2.80
2022-08-21T12:14:41.692Z,2.83
2022-08-21T12:17:20.358Z,2.60
2022-08-21T12:19:58.496Z,2.72
2022-08-21T12:22:37.800Z,2.75
2022-08-21T12:25:08.704Z,2.70
2022-08-21T12:27:47.465Z,2.47
2022-08-21T12:30:25.759Z,2.92
2022-08-21T12:33:00.364Z,2.33
2022-08-21T12:35:32.952Z,2.40
2022-08-21T12:38:07.286Z,2.38
2022-08-21T12:40:41.042Z,2.47
2022-08-21T12:43:14.872Z,2.50
2022-08-21T12:45:44.769Z,2.58
2022-08-21T12:48:19.728Z,2.60
2022-08-21T12:50:54.584Z,2.50
2022-08-21T12:53:29.244Z,2.83
2022-08-21T12:56:02.141Z,2.55
2022-08-21T12:58:29.330Z,2.47
2022-08-21T13:01:02.625Z,2.90
2022-08-21T13:03:30.038Z,2.40
2022-08-21T13:05:58.464Z,2.60
2022-08-21T13:08:28.456Z,2.47
2022-08-21T13:11:00.329Z,2.60
2022-08-21T13:13:44.600Z,2.60
2022-08-21T13:16:19.730Z,2.72
2022-08-21T13:18:55.410Z,2.30
2022-08-21T13:21:28.061Z,2.28
2022-08-21T13:24:25.518Z,2.40
2022-08-21T13:26:55.659Z,2.47
2022-08-21T13:29:24.933Z,2.70
2022-08-21T13:31:54.696Z,2.22
2022-08-21T13:34:23.746Z,2.50
2022-08-21T13:36:55.718Z,2.53
2022-08-21T13:39:24.450Z,2.60
2022-08-21T13:41:55.538Z,2.92
2022-08-21T13:44:27.862Z,2.50
2022-08-21T13:46:55.507Z,2.58
2022-08-21T13:49:30.244Z,2.60
2022-08-21T13:51:57.190Z,2.20
2022-08-21T13:54:29.840Z,2.58
2022-08-21T13:56:56.836Z,2.45
2022-08-21T13:59:28.928Z,2.53
2022-08-21T14:02:00.214Z,2.75
2022-08-21T14:04:33.692Z,2.53
2022-08-21T14:07:01.382Z,2.30
2022-08-21T14:09:32.290Z,2.38
2022-08-21T14:12:01.170Z,2.83
2022-08-21T14:14:31.091Z,2.85
2022-08-21T14:17:00.687Z,2.75
2022-08-21T14:19:36.068Z,2.38
2022-08-21T14:22:02.990Z,2.50
2022-08-21T14:24:31.610Z,3.03
2022-08-21T14:27:05.635Z,2.40
2022-08-21T14:29:35.990Z,2.40
2022-08-21T14:32:21.509Z,2.80
2022-08-21T14:34:49.024Z,2.50
2022-08-21T14:37:15.888Z,2.63
2022-08-21T14:39:45.312Z,2.60
2022-08-21T14:42:13.460Z,2.80
2022-08-21T14:44:40.346Z,2.42
2022-08-21T14:47:07.452Z,2.35
2022-08-21T14:49:34.330Z,2.33
2022-08-21T14:52:01.307Z,2.70
2022-08-21T14:54:31.658Z,2.58
2022-08-21T14:57:03.391Z,2.60
2022-08-21T14:59:31.002Z,2.47
2022-08-21T15:01:57.914Z,2.80
2022-08-21T15:04:25.444Z,2.88
2022-08-21T15:06:52.355Z,2.88
2022-08-21T15:09:19.373Z,2.95
2022-08-21T15:11:46.453Z,2.50
2022-08-21T15:14:19.675Z,2.65
2022-08-21T15:16:47.182Z,2.40
2022-08-21T15:19:14.048Z,2.72
2022-08-21T15:21:40.969Z,2.60
2022-08-21T15:24:07.929Z,2.63
2022-08-21T15:26:35.918Z,2.60
2022-08-21T15:29:03.640Z,2.90
2022-08-21T15:31:35.890Z,2.42
2022-08-21T15:34:02.989Z,2.90
2022-08-21T15:36:29.939Z,2.90
2022-08-21T15:38:56.808Z,2.50
2022-08-21T15:41:23.711Z,2.97
2022-08-21T15:43:53.970Z,2.70
2022-08-21T15:46:22.216Z,2.50
2022-08-21T15:48:50.547Z,2.73
2022-08-21T15:51:18.043Z,2.47
2022-08-21T15:53:45.249Z,2.77
2022-08-21T15:56:18.830Z,2.93
2022-08-21T15:58:45.734Z,2.70
2022-08-21T16:01:12.665Z,2.53
2022-08-21T16:03:40.003Z,2.53
2022-08-21T16:06:08.369Z,2.60
2022-08-21T16:08:35.225Z,2.60
2022-08-21T16:11:02.567Z,2.70
2022-08-21T16:13:37.345Z,3.03
2022-08-21T16:16:05.087Z,2.50
2022-08-21T16:18:32.268Z,3.27
2022-08-21T16:20:59.153Z,2.27
2022-08-21T16:23:27.399Z,3.17
2022-08-21T16:25:54.537Z,2.93
2022-08-21T16:28:21.996Z,2.83
2022-08-21T16:30:50.778Z,2.83
2022-08-21T16:33:24.935Z,2.57
2022-08-21T16:35:52.313Z,2.33
2022-08-21T16:38:19.397Z,2.50
2022-08-21T16:40:47.969Z,2.80
2022-08-21T16:43:15.759Z,2.53
2022-08-21T16:45:43.933Z,2.67
2022-08-21T16:48:11.026Z,2.73
2022-08-21T16:50:38.277Z,2.60
2022-08-21T16:53:06.885Z,2.47
2022-08-21T16:55:35.460Z,2.30
2022-08-21T16:58:09.284Z,2.63
2022-08-21T17:00:36.193Z,2.33
2022-08-21T17:03:03.200Z,2.50
2022-08-21T17:05:30.273Z,3.13
2022-08-21T17:07:57.163Z,2.50
2022-08-21T17:10:24.167Z,2.53
2022-08-21T17:12:55.906Z,3.17
2022-08-21T17:15:27.429Z,4.07
2022-08-21T17:17:56.465Z,3.47
2022-08-21T17:20:24.534Z,2.73
2022-08-21T17:22:51.772Z,3.07
2022-08-21T17:25:19.396Z,2.70
2022-08-21T17:27:48.071Z,2.30
2022-08-21T17:30:16.756Z,2.40
2022-08-21T17:32:46.622Z,2.50
2022-08-21T17:35:13.876Z,2.30
2022-08-21T17:37:41.176Z,2.20
2022-08-21T17:40:12.304Z,2.17
2022-08-21T17:42:40.606Z,2.50
2022-08-21T17:45:11.243Z,2.10
2022-08-21T17:47:38.476Z,2.47
2022-08-21T17:50:09.397Z,2.17
2022-08-21T17:52:36.707Z,2.30
2022-08-21T17:55:04.801Z,2.20
2022-08-21T17:57:35.280Z,2.27
2022-08-21T18:00:05.341Z,2.50
2022-08-21T18:02:39.453Z,2.23
2022-08-21T18:05:10.256Z,2.80
2022-08-21T18:07:37.909Z,2.10
2022-08-21T18:10:08.123Z,2.47
2022-08-21T18:12:35.636Z,2.63
2022-08-21T18:15:03.914Z,2.80
2022-08-21T18:17:33.637Z,2.77
2022-08-21T18:20:01.910Z,2.77
2022-08-21T18:22:30.130Z,2.90
2022-08-21T18:24:57.181Z,3.13
2022-08-21T18:27:29.050Z,2.70
2022-08-21T18:29:58.361Z,2.90
2022-08-21T18:32:31.234Z,3.00
2022-08-21T18:35:02.835Z,3.10
2022-08-21T18:37:31.346Z,3.70
2022-08-21T18:39:59.073Z,4.00
2022-08-21T18:42:28.794Z,3.77
2022-08-21T18:45:00.432Z,3.80
2022-08-21T18:47:33.522Z,3.60
2022-08-21T18:50:00.527Z,3.13
2022-08-21T18:52:28.551Z,3.60
2022-08-21T18:54:57.499Z,3.10
2022-08-21T18:57:27.956Z,3.50
2022-08-21T18:59:54.896Z,3.47
2022-08-21T19:02:23.278Z,3.00
2022-08-21T19:04:51.437Z,3.20
2022-08-21T19:07:20.409Z,2.90
2022-08-21T19:10:07.571Z,2.73
2022-08-21T19:12:37.392Z,3.07
2022-08-21T19:15:09.508Z,2.83
2022-08-21T19:17:36.879Z,2.17
2022-08-21T19:20:08.331Z,2.50
2022-08-21T19:22:53.512Z,2.83
2022-08-21T19:25:33.004Z,2.70
2022-08-21T19:28:03.682Z,2.70
2022-08-21T19:30:40.884Z,2.63
2022-08-21T19:33:08.656Z,2.77
2022-08-21T19:35:35.600Z,2.40
2022-08-21T19:38:02.549Z,2.57
2022-08-21T19:40:31.992Z,2.60
2022-08-21T19:42:59.144Z,2.70
2022-08-21T19:45:29.015Z,2.73
2022-08-21T19:47:56.396Z,2.93
2022-08-21T19:50:26.047Z,2.93
2022-08-21T19:52:52.924Z,2.93
2022-08-21T19:55:20.352Z,3.00
2022-08-21T19:57:50.507Z,2.63
2022-08-21T20:00:18.100Z,2.80
2022-08-21T20:02:48.104Z,2.90
2022-08-21T20:05:15.993Z,2.70
2022-08-21T20:07:46.002Z,3.10
2022-08-21T20:10:13.590Z,3.00
2022-08-21T20:12:41.693Z,2.90
2022-08-21T20:15:09.533Z,2.83
2022-08-21T20:17:38.676Z,2.90
2022-08-21T20:20:08.106Z,2.63
2022-08-21T20:22:34.972Z,3.10
2022-08-21T20:25:02.046Z,2.83
2022-08-21T20:27:29.020Z,2.90
2022-08-21T20:29:56.495Z,3.10
2022-08-21T20:32:23.364Z,3.00
2022-08-21T20:34:51.839Z,2.83
2022-08-21T20:37:22.113Z,2.90
2022-08-21T20:40:11.310Z,3.20
2022-08-21T20:42:39.080Z,3.40
2022-08-21T20:45:08.375Z,3.07
2022-08-21T20:47:58.227Z,3.30
2022-08-21T20:50:28.862Z,3.07
2022-08-21T20:53:03.459Z,3.20
2022-08-21T20:55:32.628Z,2.90
2022-08-21T20:58:03.963Z,3.13
2022-08-21T21:00:34.840Z,3.13
2022-08-21T21:03:07.739Z,2.83
2022-08-21T21:05:39.527Z,3.00
2022-08-21T21:08:12.009Z,3.00
2022-08-21T21:10:47.050Z,3.10
2022-08-21T21:13:19.349Z,2.70
2022-08-21T21:15:51.453Z,2.93
2022-08-21T21:18:27.336Z,2.83
2022-08-21T21:21:01.521Z,2.83
2022-08-21T21:23:40.116Z,3.10
2022-08-21T21:26:14.487Z,2.60
2022-08-21T21:28:48.387Z,2.70
2022-08-21T21:31:17.886Z,3.13
2022-08-21T21:33:46.710Z,2.63
2022-08-21T21:36:24.190Z,2.80
2022-08-21T21:38:59.020Z,2.90
2022-08-21T21:41:31.749Z,3.20
2022-08-21T21:44:15.900Z,3.00
2022-08-21T21:46:51.985Z,2.80
2022-08-21T21:49:34.145Z,2.90
2022-08-21T21:52:13.280Z,2.90
2022-08-21T21:55:02.836Z,2.97
2022-08-21T21:57:49.501Z,2.73
2022-08-21T22:00:26.653Z,2.83
2022-08-21T22:03:05.098Z,2.80
2022-08-21T22:05:48.879Z,2.90
2022-08-21T22:11:28.729Z,2.80
2022-08-21T22:14:03.679Z,3.13
2022-08-21T22:16:33.308Z,2.90
2022-08-21T22:19:06.889Z,2.80
2022-08-21T22:21:36.986Z,2.90
2022-08-21T22:24:12.541Z,3.03
2022-08-21T22:26:45.782Z,3.00
2022-08-21T22:29:16.774Z,2.60
2022-08-21T22:31:44.595Z,2.83
2022-08-21T22:34:19.613Z,2.70
2022-08-21T22:36:54.661Z,2.70
2022-08-21T22:39:27.460Z,3.23
2022-08-21T22:41:55.742Z,2.80
2022-08-21T22:44:27.307Z,3.27
2022-08-21T22:46:57.091Z,3.10
2022-08-21T22:49:31.504Z,3.47
2022-08-21T22:52:10.515Z,3.23
2022-08-21T22:54:40.936Z,3.50
2022-08-21T22:57:13.608Z,3.20
2022-08-21T22:59:52.602Z,3.30
2022-08-21T23:02:28.800Z,3.10
2022-08-21T23:04:59.235Z,3.20
2022-08-21T23:07:43.616Z,3.40
2022-08-21T23:10:22.585Z,3.20
2022-08-21T23:13:01.849Z,3.07
2022-08-21T23:15:34.102Z,3.30
2022-08-21T23:18:12.370Z,3.47
2022-08-21T23:20:46.089Z,3.43
2022-08-21T23:23:24.381Z,3.53
2022-08-21T23:26:06.372Z,3.13
2022-08-21T23:28:57.296Z,3.80
2022-08-21T23:31:31.552Z,3.70
2022-08-21T23:34:06.330Z,3.30
2022-08-21T23:37:01.429Z,3.00
2022-08-21T23:39:42.244Z,3.43
2022-08-21T23:42:21.390Z,3.10
2022-08-21T23:45:12.235Z,3.17
2022-08-21T23:47:53.455Z,3.20
2022-08-21T23:50:29.493Z,3.00
2022-08-21T23:53:10.146Z,2.90
2022-08-21T23:55:49.819Z,2.73
2022-08-21T23:58:32.017Z,2.87
